Marshallville, Georgia
Current Conditions -  °F | °C
As of 11:55 PM on Saturday 25 Oct 2014 (Local Time) from KPXE Reporting Station
Clear Clear  
Wind Chill: 55°   Ceiling: Unl
Heat Index: 55°   Visibility: 10mi
Dew Point: 48°   Wind: 0mph
Humidity: 80%   Direction: NA
Pressure: 30.03"   Gusts: NA
Location:  32.46°N, 83.94°W
Report Text: KPXE 260355Z AUTO 00000KT 10SM CLR 13/09 A3003 RMK AO2 T01250091
Loading
Personal Weather Stations






























Interactive Weather Map
Tropical Storm Tracking
New forecast layout! Learn more

10-Day Weather Forecast

Advertisements
Track Severe Weather on mobile